Mullin, TX

7:07 PM CDT on April 18, 2015 (GMT -0500)
Rough Creek Ranch Mills County Texas | | Change Station
CLOSE
Current Station
Personal Weather Station
Location: Rough Creek Ranch, TX
Elevation: 1450 ft
Nearby Weather Stations
Active Advisory: Severe Thunderstorm Watch Active Notice: Record Report

Elev 1450 ft 31.50 °N, 98.86 °W | Updated 2 seconds ago

Rain
Rain
57.8 °F
Feels Like 57.8 °F
N
2.3
Wind Variable Wind from ENE
Gusts 5.0 mph

Today
High -- | Low -- °F
--% Chance of Precip.
Yesterday
High -- | Low -- °F
Precip. -- in
7:03 AM 8:06 PM
New Moon, 0% visible
Pressure 29.74 in
Visibility 10.0 miles
Clouds Clear
Dew Point 56 °F
Humidity 93%
Rainfall 0.15 in
Snow Depth Not available.
UV 1 out of 12
Pollen 9.90 out of 12
Air Quality Not available.
Flu Activity Local Activity
METAR KBWD 182355Z AUTO 00000KT 10SM CLR 16/15 A2974 RMK AO2

More Conditions Fewer Conditions

Pressure 29.74 in
Visibility 10.0 miles
Clouds Clear
Dew Point 56 °F
Humidity 93%
Rainfall 0.15 in
Snow Depth Not available.
UV 1 out of 12
Pollen 9.90 out of 12
Air Quality Not available.
Flu Activity Local Activity
METAR KBWD 182355Z AUTO 00000KT 10SM CLR 16/15 A2974 RMK AO2

More Conditions Fewer Conditions

10-Day Weather Forecast

Almanac

Astronomy

Apr. 18, 2015 Rise Set
Actual Time
Civil Twilight
Nautical Twilight
Astronomical Twilight
Moon
Length of Visible Light
Length of Day
Tomorrow will be .
, % of the Moon is Illuminated

Today's Extremes

State Highs State Lows

Community

WunderPhotos

Upload Photos

1,814,588 photos uploaded!

WunderBlogs® & News

Nearby

Air Quality

  Air Quality AQ Index Pollutant
Not available.

Snow Depth

Station Depth Elevation

Earthquake Activity

City Distance Mag. Time & Date
Minimum magnitude displayed is 2.5.

Coastal Water Temperatures

Place Temperature

Stations

Nearby Weather Stations

Station Location Temp. Windchill Dew Point Humidity Wind Precip. Elev Updated Type
                   
Severe Thunderstorm Watch
Statement as of 7:03 PM CDT on April 18, 2015

Severe Thunderstorm Watch 72 remains in effect until 900 PM CDT
for the following locations


TX
. Texas counties included are

Bandera Bexar blanco
Bosque Brown Burnet
Callahan Coleman Comal
Comanche Concho Coryell
Eastland Edwards Erath
Gillespie Hamilton Haskell
Hays Hood Jack
Jones Kendall Kerr
Kimble Kinney Lampasas
Llano McCulloch Mason
Maverick Medina Menard
Mills Montague Palo Pinto
Parker real Runnels
San Saba Shackelford Somervell
Stephens Taylor Throckmorton
Travis Uvalde Val Verde
Williamson wise Young